sensor_id;sensor_type;location;lat;lon;timestamp;P1;durP1;ratioP1;P2;durP2;ratioP2
46777;SDS011;32536;47.128;8.746;2023-05-21T00:00:09;3.22;;;1.73;;
46777;SDS011;32536;47.128;8.746;2023-05-21T00:02:37;3.83;;;1.90;;
46777;SDS011;32536;47.128;8.746;2023-05-21T00:05:05;4.20;;;1.88;;
46777;SDS011;32536;47.128;8.746;2023-05-21T00:07:35;2.67;;;1.52;;
46777;SDS011;32536;47.128;8.746;2023-05-21T00:10:02;2.30;;;1.10;;
46777;SDS011;32536;47.128;8.746;2023-05-21T00:12:30;2.25;;;1.30;;
46777;SDS011;32536;47.128;8.746;2023-05-21T00:14:57;1.55;;;0.90;;
46777;SDS011;32536;47.128;8.746;2023-05-21T00:17:26;3.28;;;1.17;;
46777;SDS011;32536;47.128;8.746;2023-05-21T00:19:53;2.50;;;1.17;;
46777;SDS011;32536;47.128;8.746;2023-05-21T00:22:21;2.08;;;1.15;;
46777;SDS011;32536;47.128;8.746;2023-05-21T00:24:48;2.13;;;1.10;;
46777;SDS011;32536;47.128;8.746;2023-05-21T00:27:15;2.15;;;1.13;;
46777;SDS011;32536;47.128;8.746;2023-05-21T00:29:42;2.47;;;1.48;;
46777;SDS011;32536;47.128;8.746;2023-05-21T00:32:08;2.30;;;1.15;;
46777;SDS011;32536;47.128;8.746;2023-05-21T00:34:35;3.20;;;1.10;;
46777;SDS011;32536;47.128;8.746;2023-05-21T00:37:02;2.65;;;1.23;;
46777;SDS011;32536;47.128;8.746;2023-05-21T00:39:29;2.03;;;1.13;;
46777;SDS011;32536;47.128;8.746;2023-05-21T00:41:56;1.35;;;0.90;;
46777;SDS011;32536;47.128;8.746;2023-05-21T00:44:23;1.67;;;0.90;;
46777;SDS011;32536;47.128;8.746;2023-05-21T00:46:50;2.03;;;1.10;;
46777;SDS011;32536;47.128;8.746;2023-05-21T00:49:18;3.10;;;1.42;;
46777;SDS011;32536;47.128;8.746;2023-05-21T00:51:48;1.80;;;0.90;;
46777;SDS011;32536;47.128;8.746;2023-05-21T00:54:16;2.60;;;1.20;;
46777;SDS011;32536;47.128;8.746;2023-05-21T00:56:43;2.45;;;1.10;;
46777;SDS011;32536;47.128;8.746;2023-05-21T00:59:14;2.75;;;1.08;;
46777;SDS011;32536;47.128;8.746;2023-05-21T01:01:44;1.95;;;0.93;;
46777;SDS011;32536;47.128;8.746;2023-05-21T01:04:18;3.88;;;1.25;;
46777;SDS011;32536;47.128;8.746;2023-05-21T01:06:45;2.30;;;1.25;;
46777;SDS011;32536;47.128;8.746;2023-05-21T01:09:12;2.72;;;1.60;;
46777;SDS011;32536;47.128;8.746;2023-05-21T01:11:39;2.92;;;1.92;;
46777;SDS011;32536;47.128;8.746;2023-05-21T01:14:09;1.75;;;1.00;;
46777;SDS011;32536;47.128;8.746;2023-05-21T01:16:38;1.63;;;0.88;;
46777;SDS011;32536;47.128;8.746;2023-05-21T01:19:09;1.73;;;1.00;;
46777;SDS011;32536;47.128;8.746;2023-05-21T01:21:40;3.38;;;1.15;;
46777;SDS011;32536;47.128;8.746;2023-05-21T01:24:12;1.20;;;0.90;;
46777;SDS011;32536;47.128;8.746;2023-05-21T01:26:40;1.77;;;0.82;;
46777;SDS011;32536;47.128;8.746;2023-05-21T01:29:08;2.53;;;1.77;;
46777;SDS011;32536;47.128;8.746;2023-05-21T01:31:41;1.38;;;0.80;;
46777;SDS011;32536;47.128;8.746;2023-05-21T01:34:29;2.28;;;1.33;;
46777;SDS011;32536;47.128;8.746;2023-05-21T01:37:17;2.22;;;1.13;;
46777;SDS011;32536;47.128;8.746;2023-05-21T01:40:10;1.02;;;0.52;;
46777;SDS011;32536;47.128;8.746;2023-05-21T01:42:54;1.77;;;1.05;;
46777;SDS011;32536;47.128;8.746;2023-05-21T01:45:21;1.38;;;0.93;;
46777;SDS011;32536;47.128;8.746;2023-05-21T01:47:50;1.33;;;0.90;;
46777;SDS011;32536;47.128;8.746;2023-05-21T01:50:20;1.77;;;1.27;;
46777;SDS011;32536;47.128;8.746;2023-05-21T01:52:53;1.85;;;1.05;;
46777;SDS011;32536;47.128;8.746;2023-05-21T01:55:25;2.47;;;1.92;;
46777;SDS011;32536;47.128;8.746;2023-05-21T01:57:55;1.42;;;0.80;;
46777;SDS011;32536;47.128;8.746;2023-05-21T02:00:25;1.85;;;1.05;;
46777;SDS011;32536;47.128;8.746;2023-05-21T02:02:53;2.13;;;0.95;;
46777;SDS011;32536;47.128;8.746;2023-05-21T02:05:20;2.40;;;1.35;;
46777;SDS011;32536;47.128;8.746;2023-05-21T02:07:48;2.58;;;1.30;;
46777;SDS011;32536;47.128;8.746;2023-05-21T02:10:19;2.42;;;1.00;;
46777;SDS011;32536;47.128;8.746;2023-05-21T02:12:46;1.83;;;1.20;;
46777;SDS011;32536;47.128;8.746;2023-05-21T02:15:12;2.67;;;1.85;;
46777;SDS011;32536;47.128;8.746;2023-05-21T02:17:42;1.42;;;0.80;;
46777;SDS011;32536;47.128;8.746;2023-05-21T02:20:10;1.65;;;1.10;;
46777;SDS011;32536;47.128;8.746;2023-05-21T02:22:38;1.73;;;0.93;;
46777;SDS011;32536;47.128;8.746;2023-05-21T02:25:10;1.35;;;0.90;;
46777;SDS011;32536;47.128;8.746;2023-05-21T02:27:39;1.70;;;0.90;;
46777;SDS011;32536;47.128;8.746;2023-05-21T02:30:08;1.77;;;1.17;;
46777;SDS011;32536;47.128;8.746;2023-05-21T02:32:37;1.52;;;1.13;;
46777;SDS011;32536;47.128;8.746;2023-05-21T02:35:07;1.65;;;0.90;;
46777;SDS011;32536;47.128;8.746;2023-05-21T02:37:36;1.27;;;0.70;;
46777;SDS011;32536;47.128;8.746;2023-05-21T02:40:05;1.83;;;1.13;;
46777;SDS011;32536;47.128;8.746;2023-05-21T02:42:34;1.58;;;0.90;;
46777;SDS011;32536;47.128;8.746;2023-05-21T02:45:07;1.75;;;0.90;;
46777;SDS011;32536;47.128;8.746;2023-05-21T02:47:36;1.33;;;1.08;;
46777;SDS011;32536;47.128;8.746;2023-05-21T02:50:04;1.92;;;1.58;;
46777;SDS011;32536;47.128;8.746;2023-05-21T02:52:32;1.10;;;0.80;;
46777;SDS011;32536;47.128;8.746;2023-05-21T02:54:59;1.95;;;0.90;;
46777;SDS011;32536;47.128;8.746;2023-05-21T02:57:26;1.70;;;0.98;;
46777;SDS011;32536;47.128;8.746;2023-05-21T02:59:53;1.33;;;1.05;;
46777;SDS011;32536;47.128;8.746;2023-05-21T03:02:19;2.13;;;0.80;;
46777;SDS011;32536;47.128;8.746;2023-05-21T03:04:46;1.25;;;0.90;;
46777;SDS011;32536;47.128;8.746;2023-05-21T03:07:14;1.13;;;0.75;;
46777;SDS011;32536;47.128;8.746;2023-05-21T03:09:44;1.08;;;0.70;;
46777;SDS011;32536;47.128;8.746;2023-05-21T03:12:11;0.90;;;0.60;;
46777;SDS011;32536;47.128;8.746;2023-05-21T03:14:38;1.27;;;1.00;;
46777;SDS011;32536;47.128;8.746;2023-05-21T03:17:07;1.45;;;1.10;;
46777;SDS011;32536;47.128;8.746;2023-05-21T03:19:33;3.13;;;2.28;;
46777;SDS011;32536;47.128;8.746;2023-05-21T03:22:03;1.48;;;0.88;;
46777;SDS011;32536;47.128;8.746;2023-05-21T03:24:30;2.22;;;1.23;;
46777;SDS011;32536;47.128;8.746;2023-05-21T03:26:58;1.40;;;0.88;;
46777;SDS011;32536;47.128;8.746;2023-05-21T03:29:30;1.25;;;0.70;;
46777;SDS011;32536;47.128;8.746;2023-05-21T03:31:59;1.70;;;1.35;;
46777;SDS011;32536;47.128;8.746;2023-05-21T03:34:26;1.35;;;1.00;;
46777;SDS011;32536;47.128;8.746;2023-05-21T03:36:53;1.20;;;0.90;;
46777;SDS011;32536;47.128;8.746;2023-05-21T03:39:19;2.10;;;1.90;;
46777;SDS011;32536;47.128;8.746;2023-05-21T03:41:46;1.60;;;1.27;;
46777;SDS011;32536;47.128;8.746;2023-05-21T03:44:13;1.17;;;0.80;;
46777;SDS011;32536;47.128;8.746;2023-05-21T03:46:39;1.35;;;1.13;;
46777;SDS011;32536;47.128;8.746;2023-05-21T03:49:06;1.50;;;1.00;;
46777;SDS011;32536;47.128;8.746;2023-05-21T03:51:33;1.30;;;0.93;;
46777;SDS011;32536;47.128;8.746;2023-05-21T03:54:00;1.33;;;0.80;;
46777;SDS011;32536;47.128;8.746;2023-05-21T03:56:27;1.65;;;0.88;;
46777;SDS011;32536;47.128;8.746;2023-05-21T03:58:53;1.48;;;1.00;;
46777;SDS011;32536;47.128;8.746;2023-05-21T04:01:20;1.45;;;0.70;;
46777;SDS011;32536;47.128;8.746;2023-05-21T04:03:47;1.48;;;0.73;;
46777;SDS011;32536;47.128;8.746;2023-05-21T04:06:13;1.40;;;0.80;;
46777;SDS011;32536;47.128;8.746;2023-05-21T04:08:41;1.05;;;0.75;;
46777;SDS011;32536;47.128;8.746;2023-05-21T04:11:09;1.48;;;0.85;;
46777;SDS011;32536;47.128;8.746;2023-05-21T04:13:35;1.25;;;0.85;;
46777;SDS011;32536;47.128;8.746;2023-05-21T04:16:03;1.25;;;0.85;;
46777;SDS011;32536;47.128;8.746;2023-05-21T04:18:29;1.00;;;0.68;;
46777;SDS011;32536;47.128;8.746;2023-05-21T04:20:56;1.33;;;0.80;;
46777;SDS011;32536;47.128;8.746;2023-05-21T04:23:24;1.20;;;0.73;;
46777;SDS011;32536;47.128;8.746;2023-05-21T04:25:51;2.30;;;0.68;;
46777;SDS011;32536;47.128;8.746;2023-05-21T04:28:18;0.80;;;0.60;;
46777;SDS011;32536;47.128;8.746;2023-05-21T04:30:46;1.45;;;0.70;;
46777;SDS011;32536;47.128;8.746;2023-05-21T04:33:14;1.05;;;0.95;;
46777;SDS011;32536;47.128;8.746;2023-05-21T04:35:43;1.55;;;0.68;;
46777;SDS011;32536;47.128;8.746;2023-05-21T04:38:14;1.42;;;0.88;;
46777;SDS011;32536;47.128;8.746;2023-05-21T04:40:53;2.03;;;1.55;;
46777;SDS011;32536;47.128;8.746;2023-05-21T04:43:20;1.33;;;0.98;;
46777;SDS011;32536;47.128;8.746;2023-05-21T04:45:51;1.08;;;0.70;;
46777;SDS011;32536;47.128;8.746;2023-05-21T04:48:21;1.05;;;0.70;;
46777;SDS011;32536;47.128;8.746;2023-05-21T04:50:49;1.02;;;0.75;;
46777;SDS011;32536;47.128;8.746;2023-05-21T04:53:18;1.45;;;1.10;;
46777;SDS011;32536;47.128;8.746;2023-05-21T04:55:44;1.25;;;0.73;;
46777;SDS011;32536;47.128;8.746;2023-05-21T04:58:11;1.05;;;0.77;;
46777;SDS011;32536;47.128;8.746;2023-05-21T05:00:38;0.95;;;0.63;;
46777;SDS011;32536;47.128;8.746;2023-05-21T05:03:06;1.00;;;0.85;;
46777;SDS011;32536;47.128;8.746;2023-05-21T05:05:33;1.30;;;0.90;;
46777;SDS011;32536;47.128;8.746;2023-05-21T05:08:00;1.02;;;0.82;;
46777;SDS011;32536;47.128;8.746;2023-05-21T05:10:27;1.05;;;0.77;;
46777;SDS011;32536;47.128;8.746;2023-05-21T05:12:53;1.13;;;0.82;;
46777;SDS011;32536;47.128;8.746;2023-05-21T05:15:20;1.02;;;0.80;;
46777;SDS011;32536;47.128;8.746;2023-05-21T05:17:47;1.40;;;0.88;;
46777;SDS011;32536;47.128;8.746;2023-05-21T05:20:15;1.83;;;1.00;;
46777;SDS011;32536;47.128;8.746;2023-05-21T05:22:41;1.00;;;0.65;;
46777;SDS011;32536;47.128;8.746;2023-05-21T05:25:08;1.23;;;0.77;;
46777;SDS011;32536;47.128;8.746;2023-05-21T05:27:35;0.82;;;0.70;;
46777;SDS011;32536;47.128;8.746;2023-05-21T05:30:02;1.75;;;0.85;;
46777;SDS011;32536;47.128;8.746;2023-05-21T05:32:29;1.48;;;0.85;;
46777;SDS011;32536;47.128;8.746;2023-05-21T05:34:55;1.45;;;0.88;;
46777;SDS011;32536;47.128;8.746;2023-05-21T05:37:22;1.10;;;0.70;;
46777;SDS011;32536;47.128;8.746;2023-05-21T05:39:49;1.23;;;0.70;;
46777;SDS011;32536;47.128;8.746;2023-05-21T05:42:15;0.90;;;0.63;;
46777;SDS011;32536;47.128;8.746;2023-05-21T05:44:42;0.93;;;0.70;;
46777;SDS011;32536;47.128;8.746;2023-05-21T05:47:09;1.38;;;0.98;;
46777;SDS011;32536;47.128;8.746;2023-05-21T05:49:36;1.15;;;0.90;;
46777;SDS011;32536;47.128;8.746;2023-05-21T05:52:02;1.00;;;0.60;;
46777;SDS011;32536;47.128;8.746;2023-05-21T05:54:30;1.77;;;1.10;;
46777;SDS011;32536;47.128;8.746;2023-05-21T05:56:56;1.42;;;0.85;;
46777;SDS011;32536;47.128;8.746;2023-05-21T05:59:23;1.10;;;0.73;;
46777;SDS011;32536;47.128;8.746;2023-05-21T06:01:50;1.67;;;1.25;;
46777;SDS011;32536;47.128;8.746;2023-05-21T06:04:17;1.95;;;0.73;;
46777;SDS011;32536;47.128;8.746;2023-05-21T06:06:43;2.80;;;1.13;;
46777;SDS011;32536;47.128;8.746;2023-05-21T06:09:10;2.58;;;0.90;;
46777;SDS011;32536;47.128;8.746;2023-05-21T06:11:37;1.20;;;0.73;;
46777;SDS011;32536;47.128;8.746;2023-05-21T06:14:04;2.10;;;1.55;;
46777;SDS011;32536;47.128;8.746;2023-05-21T06:16:31;2.00;;;1.15;;
46777;SDS011;32536;47.128;8.746;2023-05-21T06:18:58;1.92;;;1.05;;
46777;SDS011;32536;47.128;8.746;2023-05-21T06:21:24;1.27;;;0.88;;
46777;SDS011;32536;47.128;8.746;2023-05-21T06:23:51;1.65;;;0.98;;
46777;SDS011;32536;47.128;8.746;2023-05-21T06:26:18;1.75;;;0.85;;
46777;SDS011;32536;47.128;8.746;2023-05-21T06:28:46;1.55;;;0.85;;
46777;SDS011;32536;47.128;8.746;2023-05-21T06:31:13;1.73;;;0.98;;
46777;SDS011;32536;47.128;8.746;2023-05-21T06:33:40;3.22;;;1.50;;
46777;SDS011;32536;47.128;8.746;2023-05-21T06:36:07;5.43;;;2.20;;
46777;SDS011;32536;47.128;8.746;2023-05-21T06:38:34;2.15;;;1.13;;
46777;SDS011;32536;47.128;8.746;2023-05-21T06:41:01;1.45;;;0.93;;
46777;SDS011;32536;47.128;8.746;2023-05-21T06:43:28;1.40;;;0.80;;
46777;SDS011;32536;47.128;8.746;2023-05-21T06:45:55;1.38;;;0.93;;
46777;SDS011;32536;47.128;8.746;2023-05-21T06:48:22;1.30;;;0.70;;
46777;SDS011;32536;47.128;8.746;2023-05-21T06:50:48;1.27;;;0.90;;
46777;SDS011;32536;47.128;8.746;2023-05-21T06:53:15;0.73;;;0.52;;
46777;SDS011;32536;47.128;8.746;2023-05-21T06:55:42;1.60;;;0.75;;
46777;SDS011;32536;47.128;8.746;2023-05-21T06:58:09;1.90;;;1.55;;
46777;SDS011;32536;47.128;8.746;2023-05-21T07:00:36;1.35;;;0.70;;
46777;SDS011;32536;47.128;8.746;2023-05-21T07:03:03;0.90;;;0.70;;
46777;SDS011;32536;47.128;8.746;2023-05-21T07:05:30;0.88;;;0.70;;
46777;SDS011;32536;47.128;8.746;2023-05-21T07:07:56;0.88;;;0.63;;
46777;SDS011;32536;47.128;8.746;2023-05-21T07:10:23;2.15;;;1.95;;
46777;SDS011;32536;47.128;8.746;2023-05-21T07:12:50;1.88;;;1.45;;
46777;SDS011;32536;47.128;8.746;2023-05-21T07:15:16;1.20;;;0.85;;
46777;SDS011;32536;47.128;8.746;2023-05-21T07:17:43;2.05;;;0.77;;
46777;SDS011;32536;47.128;8.746;2023-05-21T07:20:10;1.70;;;0.60;;
46777;SDS011;32536;47.128;8.746;2023-05-21T07:22:38;1.00;;;0.68;;
46777;SDS011;32536;47.128;8.746;2023-05-21T07:25:05;1.52;;;0.60;;
46777;SDS011;32536;47.128;8.746;2023-05-21T07:27:33;1.52;;;0.93;;
46777;SDS011;32536;47.128;8.746;2023-05-21T07:29:59;2.97;;;1.17;;
46777;SDS011;32536;47.128;8.746;2023-05-21T07:32:26;1.60;;;0.73;;
46777;SDS011;32536;47.128;8.746;2023-05-21T07:34:54;0.90;;;0.55;;
46777;SDS011;32536;47.128;8.746;2023-05-21T07:37:21;1.88;;;1.38;;
46777;SDS011;32536;47.128;8.746;2023-05-21T07:39:48;1.58;;;0.82;;
46777;SDS011;32536;47.128;8.746;2023-05-21T07:42:14;2.35;;;0.93;;
46777;SDS011;32536;47.128;8.746;2023-05-21T07:44:41;1.27;;;0.80;;
46777;SDS011;32536;47.128;8.746;2023-05-21T07:47:08;1.55;;;0.88;;
46777;SDS011;32536;47.128;8.746;2023-05-21T07:49:35;1.40;;;0.88;;
46777;SDS011;32536;47.128;8.746;2023-05-21T07:52:01;1.05;;;0.70;;
46777;SDS011;32536;47.128;8.746;2023-05-21T07:54:28;1.20;;;0.70;;
46777;SDS011;32536;47.128;8.746;2023-05-21T07:56:55;0.95;;;0.70;;
46777;SDS011;32536;47.128;8.746;2023-05-21T07:59:22;1.10;;;0.77;;
46777;SDS011;32536;47.128;8.746;2023-05-21T08:01:49;1.98;;;0.90;;
46777;SDS011;32536;47.128;8.746;2023-05-21T08:04:16;1.63;;;0.98;;
46777;SDS011;32536;47.128;8.746;2023-05-21T08:06:42;1.95;;;1.15;;
46777;SDS011;32536;47.128;8.746;2023-05-21T08:09:09;2.85;;;1.17;;
46777;SDS011;32536;47.128;8.746;2023-05-21T08:11:36;4.03;;;1.77;;
46777;SDS011;32536;47.128;8.746;2023-05-21T08:14:03;4.45;;;2.25;;
46777;SDS011;32536;47.128;8.746;2023-05-21T08:16:30;4.15;;;2.80;;
46777;SDS011;32536;47.128;8.746;2023-05-21T08:18:57;4.88;;;2.10;;
46777;SDS011;32536;47.128;8.746;2023-05-21T08:21:23;4.85;;;2.28;;
46777;SDS011;32536;47.128;8.746;2023-05-21T08:23:53;6.00;;;3.47;;
46777;SDS011;32536;47.128;8.746;2023-05-21T08:26:20;5.88;;;3.88;;
46777;SDS011;32536;47.128;8.746;2023-05-21T08:28:47;4.90;;;2.30;;
46777;SDS011;32536;47.128;8.746;2023-05-21T08:31:14;5.55;;;2.65;;
46777;SDS011;32536;47.128;8.746;2023-05-21T08:33:49;5.90;;;3.13;;
46777;SDS011;32536;47.128;8.746;2023-05-21T08:36:17;4.03;;;2.03;;
46777;SDS011;32536;47.128;8.746;2023-05-21T08:38:44;4.45;;;2.33;;
46777;SDS011;32536;47.128;8.746;2023-05-21T08:41:11;4.60;;;2.67;;
46777;SDS011;32536;47.128;8.746;2023-05-21T08:43:38;4.78;;;2.47;;
46777;SDS011;32536;47.128;8.746;2023-05-21T08:46:05;3.83;;;1.75;;
46777;SDS011;32536;47.128;8.746;2023-05-21T08:48:35;4.72;;;2.45;;
46777;SDS011;32536;47.128;8.746;2023-05-21T08:51:03;4.40;;;2.25;;
46777;SDS011;32536;47.128;8.746;2023-05-21T08:53:31;3.72;;;2.13;;
46777;SDS011;32536;47.128;8.746;2023-05-21T08:55:59;4.07;;;2.05;;
46777;SDS011;32536;47.128;8.746;2023-05-21T08:58:26;4.72;;;2.33;;
46777;SDS011;32536;47.128;8.746;2023-05-21T09:00:56;5.63;;;3.03;;
46777;SDS011;32536;47.128;8.746;2023-05-21T09:03:23;4.30;;;2.03;;
46777;SDS011;32536;47.128;8.746;2023-05-21T09:05:50;4.18;;;2.22;;
46777;SDS011;32536;47.128;8.746;2023-05-21T09:08:17;4.65;;;2.20;;
46777;SDS011;32536;47.128;8.746;2023-05-21T09:10:50;4.68;;;2.15;;
46777;SDS011;32536;47.128;8.746;2023-05-21T09:13:18;4.22;;;2.30;;
46777;SDS011;32536;47.128;8.746;2023-05-21T09:15:45;3.53;;;1.75;;
46777;SDS011;32536;47.128;8.746;2023-05-21T09:18:13;4.15;;;2.38;;
46777;SDS011;32536;47.128;8.746;2023-05-21T09:20:40;4.90;;;2.45;;
46777;SDS011;32536;47.128;8.746;2023-05-21T09:23:08;3.85;;;2.05;;
46777;SDS011;32536;47.128;8.746;2023-05-21T09:25:41;4.32;;;2.33;;
46777;SDS011;32536;47.128;8.746;2023-05-21T09:28:13;5.35;;;3.65;;
46777;SDS011;32536;47.128;8.746;2023-05-21T09:30:48;4.82;;;2.60;;
46777;SDS011;32536;47.128;8.746;2023-05-21T09:33:24;5.45;;;3.50;;
46777;SDS011;32536;47.128;8.746;2023-05-21T09:35:53;8.75;;;5.30;;
46777;SDS011;32536;47.128;8.746;2023-05-21T09:38:21;10.80;;;6.30;;
46777;SDS011;32536;47.128;8.746;2023-05-21T09:40:49;7.30;;;4.25;;
46777;SDS011;32536;47.128;8.746;2023-05-21T09:43:16;7.60;;;4.60;;
46777;SDS011;32536;47.128;8.746;2023-05-21T09:45:50;7.97;;;5.05;;
46777;SDS011;32536;47.128;8.746;2023-05-21T09:49:01;7.78;;;4.50;;
46777;SDS011;32536;47.128;8.746;2023-05-21T09:51:15;7.18;;;4.00;;
46777;SDS011;32536;47.128;8.746;2023-05-21T09:56:22;8.30;;;5.18;;
46777;SDS011;32536;47.128;8.746;2023-05-21T09:58:54;7.85;;;4.93;;
46777;SDS011;32536;47.128;8.746;2023-05-21T10:01:25;6.95;;;4.50;;
46777;SDS011;32536;47.128;8.746;2023-05-21T10:03:53;5.55;;;3.10;;
46777;SDS011;32536;47.128;8.746;2023-05-21T10:06:34;5.65;;;3.53;;
46777;SDS011;32536;47.128;8.746;2023-05-21T10:09:10;5.72;;;3.58;;
46777;SDS011;32536;47.128;8.746;2023-05-21T10:11:43;5.20;;;2.80;;
46777;SDS011;32536;47.128;8.746;2023-05-21T10:14:14;5.15;;;2.85;;
46777;SDS011;32536;47.128;8.746;2023-05-21T10:16:45;5.18;;;2.85;;
46777;SDS011;32536;47.128;8.746;2023-05-21T10:19:13;4.75;;;2.25;;
46777;SDS011;32536;47.128;8.746;2023-05-21T10:21:41;5.63;;;2.40;;
46777;SDS011;32536;47.128;8.746;2023-05-21T10:24:09;5.88;;;3.88;;
46777;SDS011;32536;47.128;8.746;2023-05-21T10:26:36;5.63;;;3.63;;
46777;SDS011;32536;47.128;8.746;2023-05-21T10:29:04;5.63;;;2.47;;
46777;SDS011;32536;47.128;8.746;2023-05-21T10:31:30;5.05;;;2.63;;
46777;SDS011;32536;47.128;8.746;2023-05-21T10:33:58;4.25;;;2.17;;
46777;SDS011;32536;47.128;8.746;2023-05-21T10:36:27;4.95;;;2.67;;
46777;SDS011;32536;47.128;8.746;2023-05-21T10:38:56;5.10;;;2.78;;
46777;SDS011;32536;47.128;8.746;2023-05-21T10:41:25;4.60;;;2.05;;
46777;SDS011;32536;47.128;8.746;2023-05-21T10:44:01;3.60;;;1.92;;
46777;SDS011;32536;47.128;8.746;2023-05-21T10:46:46;4.13;;;1.90;;
46777;SDS011;32536;47.128;8.746;2023-05-21T10:58:35;3.47;;;1.55;;
46777;SDS011;32536;47.128;8.746;2023-05-21T11:01:27;3.20;;;2.13;;
46777;SDS011;32536;47.128;8.746;2023-05-21T11:03:58;4.00;;;1.63;;
46777;SDS011;32536;47.128;8.746;2023-05-21T11:06:36;3.65;;;2.38;;
46777;SDS011;32536;47.128;8.746;2023-05-21T11:09:12;3.30;;;1.52;;
46777;SDS011;32536;47.128;8.746;2023-05-21T11:11:43;3.55;;;2.17;;
46777;SDS011;32536;47.128;8.746;2023-05-21T11:14:28;2.72;;;1.20;;
46777;SDS011;32536;47.128;8.746;2023-05-21T11:19:42;3.45;;;1.88;;
46777;SDS011;32536;47.128;8.746;2023-05-21T11:22:22;3.13;;;1.83;;
46777;SDS011;32536;47.128;8.746;2023-05-21T11:24:53;3.20;;;1.48;;
46777;SDS011;32536;47.128;8.746;2023-05-21T11:29:57;2.78;;;1.20;;
46777;SDS011;32536;47.128;8.746;2023-05-21T11:32:24;3.45;;;1.40;;
46777;SDS011;32536;47.128;8.746;2023-05-21T11:34:51;2.85;;;1.63;;
46777;SDS011;32536;47.128;8.746;2023-05-21T11:40:14;3.17;;;1.95;;
46777;SDS011;32536;47.128;8.746;2023-05-21T11:42:49;2.70;;;1.45;;
46777;SDS011;32536;47.128;8.746;2023-05-21T11:45:18;3.17;;;2.08;;
46777;SDS011;32536;47.128;8.746;2023-05-21T11:47:49;3.10;;;1.80;;
46777;SDS011;32536;47.128;8.746;2023-05-21T11:50:17;2.80;;;2.03;;
46777;SDS011;32536;47.128;8.746;2023-05-21T11:52:44;3.00;;;1.70;;
46777;SDS011;32536;47.128;8.746;2023-05-21T11:55:11;3.25;;;2.00;;
46777;SDS011;32536;47.128;8.746;2023-05-21T11:57:40;3.40;;;2.28;;
46777;SDS011;32536;47.128;8.746;2023-05-21T12:00:12;3.90;;;2.58;;
46777;SDS011;32536;47.128;8.746;2023-05-21T12:02:49;4.40;;;2.65;;
46777;SDS011;32536;47.128;8.746;2023-05-21T12:05:17;4.60;;;3.03;;
46777;SDS011;32536;47.128;8.746;2023-05-21T12:07:47;3.88;;;2.30;;
46777;SDS011;32536;47.128;8.746;2023-05-21T12:10:15;3.92;;;2.33;;
46777;SDS011;32536;47.128;8.746;2023-05-21T12:12:45;3.75;;;2.28;;
46777;SDS011;32536;47.128;8.746;2023-05-21T12:15:11;4.72;;;2.70;;
46777;SDS011;32536;47.128;8.746;2023-05-21T12:17:39;5.03;;;3.00;;
46777;SDS011;32536;47.128;8.746;2023-05-21T12:20:06;6.40;;;4.65;;
46777;SDS011;32536;47.128;8.746;2023-05-21T12:22:39;5.43;;;3.42;;
46777;SDS011;32536;47.128;8.746;2023-05-21T12:25:07;5.00;;;2.88;;
46777;SDS011;32536;47.128;8.746;2023-05-21T12:27:35;5.30;;;3.45;;
46777;SDS011;32536;47.128;8.746;2023-05-21T12:30:02;5.70;;;3.58;;
46777;SDS011;32536;47.128;8.746;2023-05-21T12:32:29;4.63;;;3.13;;
46777;SDS011;32536;47.128;8.746;2023-05-21T12:34:56;4.72;;;3.20;;
46777;SDS011;32536;47.128;8.746;2023-05-21T12:37:23;5.85;;;3.72;;
46777;SDS011;32536;47.128;8.746;2023-05-21T12:39:57;5.72;;;3.47;;
46777;SDS011;32536;47.128;8.746;2023-05-21T12:42:26;6.47;;;4.13;;
46777;SDS011;32536;47.128;8.746;2023-05-21T12:45:09;6.40;;;3.88;;
46777;SDS011;32536;47.128;8.746;2023-05-21T12:47:36;6.32;;;3.95;;
46777;SDS011;32536;47.128;8.746;2023-05-21T12:50:06;5.30;;;3.22;;
46777;SDS011;32536;47.128;8.746;2023-05-21T12:52:38;5.43;;;3.35;;
46777;SDS011;32536;47.128;8.746;2023-05-21T12:55:07;5.78;;;3.40;;
46777;SDS011;32536;47.128;8.746;2023-05-21T12:57:36;5.53;;;4.13;;
46777;SDS011;32536;47.128;8.746;2023-05-21T13:00:03;6.63;;;4.35;;
46777;SDS011;32536;47.128;8.746;2023-05-21T13:02:33;5.78;;;3.08;;
46777;SDS011;32536;47.128;8.746;2023-05-21T13:05:04;6.38;;;3.97;;
46777;SDS011;32536;47.128;8.746;2023-05-21T13:07:34;5.35;;;3.10;;
46777;SDS011;32536;47.128;8.746;2023-05-21T13:10:03;7.10;;;4.57;;
46777;SDS011;32536;47.128;8.746;2023-05-21T13:12:31;8.82;;;6.13;;
46777;SDS011;32536;47.128;8.746;2023-05-21T13:14:59;9.23;;;5.20;;
46777;SDS011;32536;47.128;8.746;2023-05-21T13:17:28;7.95;;;5.80;;
46777;SDS011;32536;47.128;8.746;2023-05-21T13:22:45;8.73;;;6.30;;
46777;SDS011;32536;47.128;8.746;2023-05-21T13:25:14;8.05;;;6.15;;
46777;SDS011;32536;47.128;8.746;2023-05-21T13:27:49;9.05;;;5.65;;
46777;SDS011;32536;47.128;8.746;2023-05-21T13:30:17;7.53;;;5.47;;
46777;SDS011;32536;47.128;8.746;2023-05-21T13:32:45;8.13;;;5.90;;
46777;SDS011;32536;47.128;8.746;2023-05-21T13:35:12;7.53;;;5.13;;
46777;SDS011;32536;47.128;8.746;2023-05-21T13:37:41;8.20;;;5.05;;
46777;SDS011;32536;47.128;8.746;2023-05-21T13:40:08;7.22;;;4.32;;
46777;SDS011;32536;47.128;8.746;2023-05-21T13:42:37;6.40;;;4.28;;
46777;SDS011;32536;47.128;8.746;2023-05-21T13:45:04;5.30;;;3.40;;
46777;SDS011;32536;47.128;8.746;2023-05-21T13:47:37;7.68;;;5.20;;
46777;SDS011;32536;47.128;8.746;2023-05-21T13:50:04;7.63;;;5.25;;
46777;SDS011;32536;47.128;8.746;2023-05-21T13:52:31;7.55;;;4.85;;
46777;SDS011;32536;47.128;8.746;2023-05-21T13:54:58;6.43;;;4.53;;
46777;SDS011;32536;47.128;8.746;2023-05-21T13:57:25;4.75;;;2.40;;
46777;SDS011;32536;47.128;8.746;2023-05-21T13:59:55;5.85;;;4.18;;
46777;SDS011;32536;47.128;8.746;2023-05-21T14:02:23;8.73;;;4.03;;
46777;SDS011;32536;47.128;8.746;2023-05-21T14:04:50;5.28;;;4.00;;
46777;SDS011;32536;47.128;8.746;2023-05-21T14:07:16;6.18;;;3.95;;
46777;SDS011;32536;47.128;8.746;2023-05-21T14:09:44;6.63;;;4.38;;
46777;SDS011;32536;47.128;8.746;2023-05-21T14:12:12;4.55;;;2.72;;
46777;SDS011;32536;47.128;8.746;2023-05-21T14:14:38;4.97;;;2.50;;
46777;SDS011;32536;47.128;8.746;2023-05-21T14:17:05;5.25;;;3.10;;
46777;SDS011;32536;47.128;8.746;2023-05-21T14:19:32;6.28;;;3.72;;
46777;SDS011;32536;47.128;8.746;2023-05-21T14:21:59;5.35;;;3.20;;
46777;SDS011;32536;47.128;8.746;2023-05-21T14:24:26;5.15;;;3.17;;
46777;SDS011;32536;47.128;8.746;2023-05-21T14:26:52;5.45;;;3.58;;
46777;SDS011;32536;47.128;8.746;2023-05-21T14:29:19;5.50;;;3.63;;
46777;SDS011;32536;47.128;8.746;2023-05-21T14:31:46;4.97;;;3.42;;
46777;SDS011;32536;47.128;8.746;2023-05-21T14:34:13;5.43;;;3.58;;
46777;SDS011;32536;47.128;8.746;2023-05-21T14:36:39;5.30;;;3.05;;
46777;SDS011;32536;47.128;8.746;2023-05-21T14:39:06;4.97;;;2.92;;
46777;SDS011;32536;47.128;8.746;2023-05-21T14:41:33;4.50;;;2.95;;
46777;SDS011;32536;47.128;8.746;2023-05-21T14:44:04;5.35;;;3.17;;
46777;SDS011;32536;47.128;8.746;2023-05-21T14:46:30;5.22;;;3.50;;
46777;SDS011;32536;47.128;8.746;2023-05-21T14:48:57;5.75;;;3.90;;
46777;SDS011;32536;47.128;8.746;2023-05-21T14:51:25;5.40;;;3.65;;
46777;SDS011;32536;47.128;8.746;2023-05-21T14:53:51;5.22;;;3.42;;
46777;SDS011;32536;47.128;8.746;2023-05-21T14:56:18;4.05;;;2.17;;
46777;SDS011;32536;47.128;8.746;2023-05-21T14:58:46;5.35;;;2.53;;
46777;SDS011;32536;47.128;8.746;2023-05-21T15:01:13;6.88;;;3.78;;
46777;SDS011;32536;47.128;8.746;2023-05-21T15:03:39;5.40;;;3.53;;
46777;SDS011;32536;47.128;8.746;2023-05-21T15:06:06;4.53;;;2.65;;
46777;SDS011;32536;47.128;8.746;2023-05-21T15:08:33;5.40;;;3.65;;
46777;SDS011;32536;47.128;8.746;2023-05-21T15:11:00;5.00;;;3.42;;
46777;SDS011;32536;47.128;8.746;2023-05-21T15:13:27;4.18;;;2.55;;
46777;SDS011;32536;47.128;8.746;2023-05-21T15:15:53;4.65;;;3.53;;
46777;SDS011;32536;47.128;8.746;2023-05-21T15:18:20;4.75;;;3.35;;